createdAt,value
2018-05-25T00:00:48.905Z,16.20
2018-05-25T00:03:16.545Z,16.20
2018-05-25T00:05:44.924Z,16.20
2018-05-25T00:08:13.311Z,16.20
2018-05-25T00:10:40.911Z,16.20
2018-05-25T00:13:08.561Z,16.20
2018-05-25T00:15:36.198Z,16.20
2018-05-25T00:18:03.831Z,16.10
2018-05-25T00:20:31.442Z,16.10
2018-05-25T00:22:59.059Z,16.10
2018-05-25T00:25:27.469Z,16.10
2018-05-25T00:27:55.068Z,16.00
2018-05-25T00:30:22.685Z,16.10
2018-05-25T00:32:50.325Z,16.00
2018-05-25T00:35:18.718Z,15.90
2018-05-25T00:37:46.357Z,16.00
2018-05-25T00:40:14.742Z,15.90
2018-05-25T00:42:43.119Z,15.90
2018-05-25T00:45:11.489Z,16.00
2018-05-25T00:47:39.901Z,16.00
2018-05-25T00:50:07.553Z,16.00
2018-05-25T00:52:35.181Z,16.00
2018-05-25T00:55:14.599Z,15.90
2018-05-25T00:57:42.207Z,16.00
2018-05-25T01:00:09.830Z,16.00
2018-05-25T01:02:37.430Z,16.00
2018-05-25T01:05:05.068Z,16.00
2018-05-25T01:07:33.489Z,16.00
2018-05-25T01:10:01.082Z,15.90
2018-05-25T01:12:28.674Z,16.00
2018-05-25T01:14:57.046Z,16.00
2018-05-25T01:17:25.416Z,16.00
2018-05-25T01:19:53.799Z,15.90
2018-05-25T01:22:22.176Z,15.80
2018-05-25T01:24:50.518Z,15.80
2018-05-25T01:27:18.129Z,15.80
2018-05-25T01:29:45.743Z,15.80
2018-05-25T01:32:13.349Z,15.80
2018-05-25T01:34:41.010Z,15.80
2018-05-25T01:37:08.611Z,15.80
2018-05-25T01:39:36.215Z,15.80
2018-05-25T01:42:04.611Z,15.90
2018-05-25T01:44:32.251Z,15.80
2018-05-25T01:47:00.632Z,15.80
2018-05-25T01:49:28.984Z,15.80
2018-05-25T01:51:56.608Z,15.80
2018-05-25T01:54:24.236Z,15.80
2018-05-25T01:56:52.617Z,15.80
2018-05-25T01:59:20.984Z,15.80
2018-05-25T02:01:49.345Z,15.80
2018-05-25T02:04:16.963Z,15.80
2018-05-25T02:06:44.555Z,15.80
2018-05-25T02:09:12.241Z,15.80
2018-05-25T02:11:40.630Z,15.70
2018-05-25T02:14:08.288Z,15.60
2018-05-25T02:16:36.005Z,15.60
2018-05-25T02:19:03.623Z,15.60
2018-05-25T02:21:31.265Z,15.60
2018-05-25T02:23:59.649Z,15.60
2018-05-25T02:26:28.060Z,15.60
2018-05-25T02:28:55.663Z,15.60
2018-05-25T02:31:23.242Z,15.60
2018-05-25T02:33:51.650Z,15.50
2018-05-25T02:36:19.260Z,15.50
2018-05-25T02:38:46.858Z,15.50
2018-05-25T02:41:14.476Z,15.50
2018-05-25T02:43:42.085Z,15.50
2018-05-25T02:46:09.706Z,15.50
2018-05-25T02:48:38.089Z,15.50
2018-05-25T02:51:05.746Z,15.50
2018-05-25T02:53:33.369Z,15.40
2018-05-25T02:56:01.011Z,15.40
2018-05-25T02:58:28.659Z,15.30
2018-05-25T03:00:56.260Z,15.30
2018-05-25T03:03:23.885Z,15.30
2018-05-25T03:05:51.475Z,15.30
2018-05-25T03:08:19.091Z,15.20
2018-05-25T03:10:46.717Z,15.30
2018-05-25T03:13:14.387Z,15.30
2018-05-25T03:15:41.982Z,15.30
2018-05-25T03:18:09.619Z,15.20
2018-05-25T03:20:40.606Z,15.20
2018-05-25T03:23:08.253Z,15.20
2018-05-25T03:25:35.848Z,15.10
2018-05-25T03:28:03.488Z,15.10
2018-05-25T03:30:31.103Z,15.10
2018-05-25T03:32:59.473Z,15.10
2018-05-25T03:35:27.909Z,15.10
2018-05-25T03:37:55.507Z,15.10
2018-05-25T03:40:23.116Z,15.10
2018-05-25T03:42:50.752Z,15.00
2018-05-25T03:45:18.424Z,15.00
2018-05-25T03:47:46.057Z,15.10
2018-05-25T03:50:14.444Z,15.00
2018-05-25T03:52:42.084Z,15.00
2018-05-25T03:55:10.820Z,15.00
2018-05-25T03:57:38.405Z,15.00
2018-05-25T04:00:17.639Z,15.00
2018-05-25T04:02:45.236Z,14.90
2018-05-25T04:05:13.603Z,14.90
2018-05-25T04:07:41.208Z,14.90
2018-05-25T04:10:08.860Z,14.90
2018-05-25T04:12:36.475Z,14.90
2018-05-25T04:15:04.107Z,14.80
2018-05-25T04:17:31.696Z,14.90
2018-05-25T04:19:59.291Z,14.90
2018-05-25T04:22:26.937Z,14.90
2018-05-25T04:24:55.335Z,14.80
2018-05-25T04:27:22.950Z,14.80
2018-05-25T04:29:50.560Z,14.80
2018-05-25T04:32:18.145Z,14.80
2018-05-25T04:34:45.759Z,14.80
2018-05-25T04:37:13.382Z,14.80
2018-05-25T04:39:41.002Z,14.80
2018-05-25T04:42:08.600Z,14.70
2018-05-25T04:44:36.182Z,14.70
2018-05-25T04:47:03.802Z,14.60
2018-05-25T04:49:31.405Z,14.60
2018-05-25T04:51:59.773Z,14.60
2018-05-25T04:54:27.397Z,14.60
2018-05-25T04:56:54.980Z,14.70
2018-05-25T04:59:24.100Z,14.80
2018-05-25T05:01:52.493Z,14.80
2018-05-25T05:04:20.110Z,14.80
2018-05-25T05:09:21.689Z,14.80
2018-05-25T05:11:49.365Z,14.80
2018-05-25T05:14:17.745Z,15.00
2018-05-25T05:16:46.129Z,15.10
2018-05-25T05:19:14.520Z,15.10
2018-05-25T05:21:42.157Z,15.10
2018-05-25T05:24:09.801Z,15.20
2018-05-25T05:26:37.418Z,15.20
2018-05-25T05:29:05.039Z,15.20
2018-05-25T05:31:33.454Z,15.20
2018-05-25T05:34:01.108Z,15.10
2018-05-25T05:36:28.728Z,15.20
2018-05-25T05:38:56.317Z,15.20
2018-05-25T05:41:24.719Z,15.30
2018-05-25T05:43:52.326Z,15.30
2018-05-25T05:46:19.962Z,15.40
2018-05-25T05:48:47.595Z,15.40
2018-05-25T05:51:15.221Z,15.50
2018-05-25T05:53:43.577Z,15.70
2018-05-25T05:56:11.220Z,15.70
2018-05-25T05:58:38.846Z,15.70
2018-05-25T06:01:06.511Z,15.80
2018-05-25T06:03:34.129Z,15.80
2018-05-25T06:06:01.750Z,15.80
2018-05-25T06:08:29.370Z,15.90
2018-05-25T06:10:57.755Z,16.00
2018-05-25T06:13:25.394Z,16.00
2018-05-25T06:15:53.022Z,16.10
2018-05-25T06:18:20.620Z,16.10
2018-05-25T06:20:49.019Z,16.20
2018-05-25T06:23:16.637Z,16.20
2018-05-25T06:25:44.300Z,16.20
2018-05-25T06:28:11.898Z,16.30
2018-05-25T06:30:39.540Z,16.30
2018-05-25T06:33:07.897Z,16.50
2018-05-25T06:35:35.519Z,16.50
2018-05-25T06:38:03.175Z,16.50
2018-05-25T06:40:30.786Z,16.60
2018-05-25T06:42:58.420Z,16.70
2018-05-25T06:45:26.085Z,16.70
2018-05-25T06:47:53.730Z,16.80
2018-05-25T06:50:21.356Z,16.90
2018-05-25T06:52:49.737Z,17.00
2018-05-25T06:55:17.370Z,17.00
2018-05-25T06:57:44.962Z,17.10
2018-05-25T07:00:12.580Z,17.20
2018-05-25T07:02:40.226Z,17.20
2018-05-25T07:05:07.855Z,17.30
2018-05-25T07:07:35.440Z,17.40
2018-05-25T07:10:03.087Z,17.40
2018-05-25T07:12:30.699Z,17.50
2018-05-25T07:14:59.060Z,17.60
2018-05-25T07:17:27.477Z,17.70
2018-05-25T07:19:55.062Z,17.60
2018-05-25T07:22:22.690Z,17.70
2018-05-25T07:24:51.061Z,17.80
2018-05-25T07:27:19.479Z,17.90
2018-05-25T07:29:47.100Z,17.90
2018-05-25T07:32:15.465Z,18.00
2018-05-25T07:34:43.079Z,18.00
2018-05-25T07:37:10.691Z,18.10
2018-05-25T07:39:39.091Z,18.30
2018-05-25T07:42:06.694Z,18.20
2018-05-25T07:44:34.330Z,18.40
2018-05-25T07:47:01.963Z,18.50
2018-05-25T07:49:30.355Z,18.70
2018-05-25T07:51:57.978Z,18.60
2018-05-25T07:54:25.721Z,18.70
2018-05-25T07:56:53.228Z,18.90
2018-05-25T07:59:20.850Z,18.90
2018-05-25T08:01:48.478Z,18.90
2018-05-25T08:04:16.113Z,19.00
2018-05-25T08:06:43.721Z,19.00
2018-05-25T08:09:11.342Z,19.00
2018-05-25T08:11:38.921Z,19.10
2018-05-25T08:14:06.541Z,19.10
2018-05-25T08:16:34.950Z,19.30
2018-05-25T08:19:02.590Z,19.30
2018-05-25T08:23:59.126Z,19.50
2018-05-25T08:26:27.516Z,19.70
2018-05-25T08:28:55.140Z,19.70
2018-05-25T08:31:22.763Z,19.80
2018-05-25T08:33:50.353Z,19.90
2018-05-25T08:36:17.995Z,20.00
2018-05-25T08:38:45.588Z,20.10
2018-05-25T08:41:13.232Z,20.20
2018-05-25T08:43:40.840Z,20.30
2018-05-25T08:46:08.442Z,20.50
2018-05-25T08:48:36.054Z,20.60
2018-05-25T08:51:03.713Z,20.60
2018-05-25T08:53:31.530Z,20.70
2018-05-25T08:55:59.720Z,20.90
2018-05-25T08:58:27.330Z,20.90
2018-05-25T09:00:54.938Z,21.00
2018-05-25T09:03:22.563Z,21.10
2018-05-25T09:05:50.178Z,21.10
2018-05-25T09:08:18.541Z,21.00
2018-05-25T09:10:46.158Z,21.00
2018-05-25T09:13:13.759Z,21.10
2018-05-25T09:15:41.391Z,21.00
2018-05-25T09:18:09.030Z,21.10
2018-05-25T09:20:36.620Z,21.10
2018-05-25T09:23:04.217Z,21.20
2018-05-25T09:25:32.600Z,21.40
2018-05-25T09:28:00.967Z,21.50
2018-05-25T09:30:29.758Z,21.60
2018-05-25T09:32:58.141Z,21.70
2018-05-25T09:35:26.517Z,21.80
2018-05-25T09:37:54.877Z,21.90
2018-05-25T09:40:22.512Z,21.90
2018-05-25T09:42:50.144Z,22.00
2018-05-25T09:45:17.794Z,22.10
2018-05-25T09:47:45.420Z,22.10
2018-05-25T09:50:13.071Z,22.20
2018-05-25T09:52:40.776Z,22.30
2018-05-25T09:55:08.396Z,22.40
2018-05-25T09:57:36.055Z,22.50
2018-05-25T10:00:03.730Z,22.60
2018-05-25T10:02:31.346Z,22.60
2018-05-25T10:05:00.088Z,22.90
2018-05-25T10:07:28.488Z,23.00
2018-05-25T10:09:56.085Z,23.00
2018-05-25T10:12:23.657Z,23.20
2018-05-25T10:14:51.253Z,23.30
2018-05-25T10:17:19.608Z,23.70
2018-05-25T10:19:47.251Z,23.70
2018-05-25T10:22:14.871Z,23.80
2018-05-25T10:24:42.500Z,23.80
2018-05-25T10:27:10.867Z,23.70
2018-05-25T10:29:38.462Z,23.70
2018-05-25T10:32:06.137Z,23.70
2018-05-25T10:34:33.776Z,24.00
2018-05-25T10:37:01.354Z,24.00
2018-05-25T10:39:29.137Z,24.20
2018-05-25T10:41:56.789Z,24.20
2018-05-25T10:44:24.425Z,24.30
2018-05-25T10:46:52.038Z,24.40
2018-05-25T10:49:19.649Z,24.50
2018-05-25T10:51:47.279Z,24.60
2018-05-25T10:54:14.910Z,24.70
2018-05-25T10:56:42.581Z,24.90
2018-05-25T10:59:10.209Z,25.00
2018-05-25T11:01:37.820Z,25.00
2018-05-25T11:04:06.211Z,25.20
2018-05-25T11:06:34.585Z,25.30
2018-05-25T11:09:03.120Z,25.40
2018-05-25T11:11:30.750Z,25.30
2018-05-25T11:13:58.390Z,25.50
2018-05-25T11:16:26.770Z,25.60
2018-05-25T11:18:55.130Z,25.70
2018-05-25T11:21:22.769Z,25.70
2018-05-25T11:23:50.382Z,25.80
2018-05-25T11:26:18.050Z,25.80
2018-05-25T11:28:45.699Z,26.00
2018-05-25T11:31:13.383Z,26.10
2018-05-25T11:33:41.029Z,26.30
2018-05-25T11:36:08.630Z,26.40
2018-05-25T11:38:36.221Z,26.60
2018-05-25T11:41:04.637Z,26.80
2018-05-25T11:43:32.273Z,26.80
2018-05-25T11:46:00.669Z,27.00
2018-05-25T11:48:28.298Z,27.00
2018-05-25T11:50:56.689Z,27.20
2018-05-25T11:53:25.072Z,27.40
2018-05-25T11:55:52.703Z,27.30
2018-05-25T11:58:20.379Z,27.40
2018-05-25T12:00:48.777Z,27.40
2018-05-25T12:03:16.403Z,27.40
2018-05-25T12:05:44.814Z,27.50
2018-05-25T12:08:12.423Z,27.50
2018-05-25T12:10:40.045Z,27.60
2018-05-25T12:13:07.647Z,27.60
2018-05-25T12:15:35.267Z,27.60
2018-05-25T12:18:02.859Z,27.60
2018-05-25T12:20:30.514Z,27.50
2018-05-25T12:22:58.150Z,27.60
2018-05-25T12:25:25.729Z,27.60
2018-05-25T12:27:53.352Z,27.80
2018-05-25T12:30:20.993Z,27.90
2018-05-25T12:32:49.377Z,27.40
2018-05-25T12:35:17.864Z,27.00
2018-05-25T12:37:46.214Z,26.60
2018-05-25T12:40:13.821Z,26.60
2018-05-25T12:42:41.431Z,26.40
2018-05-25T12:45:12.951Z,26.20
2018-05-25T12:47:40.584Z,26.10
2018-05-25T12:50:08.241Z,26.10
2018-05-25T12:52:35.859Z,26.20
2018-05-25T12:55:03.510Z,26.50
2018-05-25T12:57:31.108Z,26.70
2018-05-25T12:59:59.510Z,26.60
2018-05-25T13:02:27.095Z,26.50
2018-05-25T13:04:54.725Z,26.40
2018-05-25T13:07:22.325Z,26.40
2018-05-25T13:09:49.936Z,26.60
2018-05-25T13:12:17.575Z,26.80
2018-05-25T13:14:45.161Z,26.90
2018-05-25T13:17:12.777Z,27.00
2018-05-25T13:19:40.399Z,27.20
2018-05-25T13:22:08.040Z,27.20
2018-05-25T13:24:35.673Z,27.40
2018-05-25T13:27:03.292Z,27.60
2018-05-25T13:29:30.930Z,27.90
2018-05-25T13:31:58.531Z,28.00
2018-05-25T13:34:26.154Z,28.10
2018-05-25T13:36:53.783Z,28.30
2018-05-25T13:39:22.132Z,28.30
2018-05-25T13:41:49.743Z,28.30
2018-05-25T14:58:56.198Z,30.30
2018-05-25T15:01:23.851Z,30.30
2018-05-25T15:03:51.496Z,30.40
2018-05-25T15:06:19.120Z,30.20
2018-05-25T15:18:43.794Z,31.60
2018-05-25T15:21:12.163Z,30.20
2018-05-25T15:23:40.633Z,29.40
2018-05-25T15:26:08.261Z,29.30
2018-05-25T15:28:35.898Z,28.80
2018-05-25T15:31:03.663Z,28.30
2018-05-25T15:33:31.898Z,27.80
2018-05-25T15:35:59.541Z,27.80
2018-05-25T15:38:27.163Z,27.80
2018-05-25T15:40:54.818Z,28.10
2018-05-25T15:43:22.447Z,28.70
2018-05-25T15:45:50.070Z,29.30
2018-05-25T15:48:17.678Z,29.60
2018-05-25T15:50:46.040Z,29.70
2018-05-25T15:53:13.682Z,29.70
2018-05-25T15:55:41.286Z,29.80
2018-05-25T15:58:09.670Z,28.60
2018-05-25T16:00:37.306Z,28.60
2018-05-25T16:03:04.930Z,28.20
2018-05-25T16:05:32.590Z,27.70
2018-05-25T16:08:00.178Z,27.30
2018-05-25T16:10:27.785Z,26.90
2018-05-25T16:12:55.383Z,27.00
2018-05-25T16:15:23.041Z,27.20
2018-05-25T16:17:50.696Z,27.30
2018-05-25T16:20:18.329Z,27.40
2018-05-25T16:22:45.930Z,27.30
2018-05-25T16:25:13.562Z,27.20
2018-05-25T16:27:41.174Z,27.00
2018-05-25T16:30:09.605Z,26.90
2018-05-25T16:32:37.220Z,26.90
2018-05-25T16:35:05.637Z,26.30
2018-05-25T16:37:33.274Z,26.30
2018-05-25T16:40:00.884Z,26.00
2018-05-25T16:42:28.520Z,25.90
2018-05-25T16:44:56.123Z,25.90
2018-05-25T16:47:23.754Z,25.80
2018-05-25T16:49:51.373Z,25.70
2018-05-25T16:52:18.998Z,25.60
2018-05-25T16:54:46.626Z,25.40
2018-05-25T16:57:14.280Z,25.30
2018-05-25T16:59:41.921Z,25.30
2018-05-25T17:02:09.546Z,25.20
2018-05-25T17:04:37.164Z,25.10
2018-05-25T17:07:04.770Z,24.90
2018-05-25T17:09:32.412Z,24.90
2018-05-25T17:12:00.030Z,24.70
2018-05-25T17:14:27.665Z,24.50
2018-05-25T17:16:56.070Z,24.40
2018-05-25T17:19:23.728Z,24.40
2018-05-25T17:21:51.364Z,24.20
2018-05-25T17:24:19.779Z,23.90
2018-05-25T17:26:47.401Z,23.90
2018-05-25T17:29:15.789Z,23.70
2018-05-25T17:31:44.179Z,23.60
2018-05-25T17:34:11.796Z,23.60
2018-05-25T17:36:39.385Z,23.50
2018-05-25T17:39:07.781Z,23.40
2018-05-25T17:41:35.400Z,23.40
2018-05-25T17:44:03.030Z,23.30
2018-05-25T17:46:30.650Z,23.20
2018-05-25T17:48:58.242Z,23.00
2018-05-25T17:51:25.891Z,23.00
2018-05-25T17:53:53.481Z,23.00
2018-05-25T17:56:21.085Z,22.80
2018-05-25T17:58:48.710Z,22.70
2018-05-25T18:01:16.370Z,22.60
2018-05-25T18:03:43.980Z,22.60
2018-05-25T18:06:11.620Z,22.60
2018-05-25T18:30:10.665Z,22.40
2018-05-25T18:32:38.272Z,21.90
2018-05-25T18:35:05.875Z,21.60
2018-05-25T18:37:34.240Z,21.00
2018-05-25T18:40:02.599Z,20.70
2018-05-25T18:42:30.209Z,20.70
2018-05-25T18:44:57.842Z,20.60
2018-05-25T18:47:25.462Z,20.40
2018-05-25T18:49:53.076Z,20.40
2018-05-25T18:52:20.718Z,20.30
2018-05-25T18:54:49.090Z,20.30
2018-05-25T18:57:17.480Z,20.20
2018-05-25T18:59:45.883Z,20.00
2018-05-25T19:02:13.488Z,20.00
2018-05-25T19:04:41.144Z,20.00
2018-05-25T19:07:08.735Z,19.90
2018-05-25T19:09:37.113Z,19.70
2018-05-25T19:12:05.488Z,19.60
2018-05-25T19:14:33.911Z,19.60
2018-05-25T19:17:01.531Z,19.60
2018-05-25T19:19:29.935Z,19.70
2018-05-25T19:21:57.538Z,19.70
2018-05-25T19:24:25.151Z,19.70
2018-05-25T19:26:52.822Z,19.70
2018-05-25T19:29:20.439Z,19.80
2018-05-25T19:31:48.038Z,19.70
2018-05-25T19:34:15.645Z,19.70
2018-05-25T19:36:43.279Z,19.60
2018-05-25T19:39:10.882Z,19.50
2018-05-25T19:41:39.270Z,19.30
2018-05-25T19:44:07.654Z,19.30
2018-05-25T19:46:35.246Z,19.20
2018-05-25T19:49:02.874Z,19.10
2018-05-25T19:51:31.280Z,19.10
2018-05-25T19:53:58.890Z,19.10
2018-05-25T19:56:26.670Z,19.00
2018-05-25T19:58:58.148Z,19.00
2018-05-25T20:01:29.147Z,19.00
2018-05-25T20:04:05.276Z,19.10
2018-05-25T20:06:33.128Z,19.10
2018-05-25T20:09:01.095Z,19.20
2018-05-25T20:11:31.310Z,19.10
2018-05-25T20:14:02.290Z,19.10
2018-05-25T20:16:34.022Z,19.10
2018-05-25T20:19:02.768Z,19.00
2018-05-25T20:21:32.003Z,19.00
2018-05-25T20:24:00.555Z,18.90
2018-05-25T20:26:29.947Z,18.80
2018-05-25T20:28:57.901Z,18.80
2018-05-25T20:31:26.780Z,18.80
2018-05-25T20:33:55.569Z,18.80
2018-05-25T20:36:24.639Z,18.50
2018-05-25T20:38:52.267Z,18.50
2018-05-25T20:41:19.892Z,18.40
2018-05-25T20:43:48.269Z,18.50
2018-05-25T20:46:16.627Z,18.40
2018-05-25T20:48:44.256Z,18.40
2018-05-25T20:51:11.905Z,18.40
2018-05-25T20:53:39.500Z,18.30
2018-05-25T20:56:07.108Z,18.10
2018-05-25T20:58:34.728Z,18.10
2018-05-25T21:01:02.368Z,18.20
2018-05-25T21:03:30.005Z,18.20
2018-05-25T21:05:57.650Z,18.20
2018-05-25T21:08:25.270Z,18.20
2018-05-25T21:10:52.930Z,18.10
2018-05-25T21:13:20.546Z,18.10
2018-05-25T21:15:48.169Z,18.10
2018-05-25T21:18:16.561Z,18.10
2018-05-25T21:20:44.929Z,18.00
2018-05-25T21:23:13.313Z,17.90
2018-05-25T21:25:41.720Z,17.80
2018-05-25T21:28:09.365Z,17.80
2018-05-25T21:30:37.007Z,17.80
2018-05-25T21:33:05.388Z,17.70
2018-05-25T21:35:33.790Z,17.70
2018-05-25T21:38:01.396Z,17.70
2018-05-25T21:40:29.030Z,17.60
2018-05-25T21:42:56.650Z,17.60
2018-05-25T21:45:25.070Z,17.60
2018-05-25T21:47:52.750Z,17.60
2018-05-25T21:50:20.375Z,17.60
2018-05-25T21:52:48.022Z,17.50
2018-05-25T21:57:49.610Z,17.40
2018-05-25T22:00:17.276Z,17.40
2018-05-25T22:02:44.880Z,17.40
2018-05-25T22:05:12.488Z,17.40
2018-05-25T22:07:40.147Z,17.30
2018-05-25T22:10:07.791Z,17.30
2018-05-25T22:12:35.394Z,17.40
2018-05-25T22:15:03.041Z,17.40
2018-05-25T22:17:30.658Z,17.30
2018-05-25T22:19:59.029Z,17.30
2018-05-25T22:22:27.451Z,17.20
2018-05-25T22:24:55.087Z,17.20
2018-05-25T22:27:22.709Z,17.20
2018-05-25T22:29:50.302Z,17.10
2018-05-25T22:32:18.662Z,17.00
2018-05-25T22:34:46.292Z,17.00
2018-05-25T22:37:13.896Z,17.00
2018-05-25T22:39:42.260Z,16.90
2018-05-25T22:42:09.351Z,16.80
2018-05-25T22:44:48.954Z,16.80
2018-05-25T22:47:29.133Z,16.70
2018-05-25T22:50:08.568Z,16.60
2018-05-25T22:52:41.331Z,16.60
2018-05-25T22:55:12.655Z,16.60
2018-05-25T22:57:40.298Z,16.50
2018-05-25T23:00:07.981Z,16.60
2018-05-25T23:02:35.595Z,16.70
2018-05-25T23:05:03.189Z,16.60
2018-05-25T23:07:30.830Z,16.60
2018-05-25T23:09:58.458Z,16.60
2018-05-25T23:12:26.066Z,16.50
2018-05-25T23:14:53.684Z,16.60
2018-05-25T23:17:21.320Z,16.50
2018-05-25T23:19:49.708Z,16.50
2018-05-25T23:22:18.109Z,16.40
2018-05-25T23:24:45.725Z,16.40
2018-05-25T23:27:13.349Z,16.40
2018-05-25T23:29:40.966Z,16.40
2018-05-25T23:32:09.362Z,16.30
2018-05-25T23:34:37.058Z,16.30
2018-05-25T23:37:04.633Z,16.30
2018-05-25T23:39:32.227Z,16.20
2018-05-25T23:42:00.582Z,16.20
2018-05-25T23:44:28.190Z,16.10
2018-05-25T23:46:55.830Z,16.10
2018-05-25T23:49:23.445Z,16.10
2018-05-25T23:51:51.070Z,16.00
2018-05-25T23:54:18.685Z,15.90
2018-05-25T23:56:46.321Z,15.80
2018-05-25T23:59:13.934Z,15.80
